createdAt,value
2023-06-17T00:01:55.106Z,3.60
2023-06-17T00:04:42.668Z,3.65
2023-06-17T00:07:30.652Z,3.10
2023-06-17T00:10:18.581Z,4.13
2023-06-17T00:13:08.869Z,4.47
2023-06-17T00:16:00.744Z,3.10
2023-06-17T00:18:49.239Z,4.30
2023-06-17T00:21:36.807Z,3.27
2023-06-17T00:24:24.426Z,4.13
2023-06-17T00:27:11.974Z,3.60
2023-06-17T00:30:01.169Z,4.17
2023-06-17T00:32:48.858Z,3.13
2023-06-17T00:35:36.648Z,3.88
2023-06-17T00:38:24.176Z,3.85
2023-06-17T00:41:11.707Z,3.17
2023-06-17T00:43:59.162Z,3.67
2023-06-17T00:46:54.504Z,3.88
2023-06-17T00:49:45.238Z,3.33
2023-06-17T00:52:42.206Z,3.55
2023-06-17T00:55:31.547Z,3.22
2023-06-17T00:58:19.905Z,3.53
2023-06-17T01:01:07.431Z,3.60
2023-06-17T01:03:55.522Z,4.75
2023-06-17T01:06:57.065Z,4.13
2023-06-17T01:09:54.479Z,4.00
2023-06-17T01:12:44.206Z,3.15
2023-06-17T01:15:36.061Z,3.45
2023-06-17T01:18:24.261Z,3.80
2023-06-17T01:21:13.825Z,3.90
2023-06-17T01:24:03.566Z,4.33
2023-06-17T01:26:56.615Z,4.73
2023-06-17T01:29:44.325Z,3.10
2023-06-17T01:32:31.925Z,4.32
2023-06-17T01:35:19.712Z,3.97
2023-06-17T01:38:19.065Z,3.30
2023-06-17T01:41:30.893Z,3.90
2023-06-17T01:44:20.952Z,3.73
2023-06-17T01:47:11.590Z,3.70
2023-06-17T01:50:02.256Z,3.50
2023-06-17T01:52:49.846Z,3.42
2023-06-17T01:55:37.359Z,5.57
2023-06-17T01:58:25.278Z,3.88
2023-06-17T02:01:12.935Z,3.00
2023-06-17T02:04:00.803Z,4.15
2023-06-17T02:06:48.419Z,3.50
2023-06-17T02:09:35.981Z,4.00
2023-06-17T02:12:23.907Z,3.53
2023-06-17T02:15:12.420Z,4.38
2023-06-17T02:18:00.485Z,3.42
2023-06-17T02:20:48.193Z,3.05
2023-06-17T02:23:36.306Z,3.40
2023-06-17T02:26:24.233Z,3.35
2023-06-17T02:29:12.021Z,4.05
2023-06-17T02:31:59.519Z,3.30
2023-06-17T02:34:49.280Z,3.00
2023-06-17T02:37:37.469Z,4.23
2023-06-17T02:40:25.066Z,3.75
2023-06-17T02:43:12.551Z,3.07
2023-06-17T02:46:00.049Z,3.07
2023-06-17T02:48:47.580Z,3.50
2023-06-17T02:51:35.434Z,3.70
2023-06-17T02:54:22.988Z,3.70
2023-06-17T02:57:10.822Z,4.73
2023-06-17T02:59:59.162Z,3.70
2023-06-17T03:02:46.908Z,4.78
2023-06-17T03:05:34.527Z,3.43
2023-06-17T03:08:22.027Z,3.50
2023-06-17T03:11:10.322Z,4.23
2023-06-17T03:13:58.154Z,4.38
2023-06-17T03:16:45.772Z,3.67
2023-06-17T03:19:33.505Z,3.80
2023-06-17T03:22:21.109Z,3.50
2023-06-17T03:25:08.980Z,3.67
2023-06-17T03:27:57.229Z,3.97
2023-06-17T03:30:45.444Z,3.00
2023-06-17T03:33:32.960Z,3.57
2023-06-17T03:36:25.870Z,3.70
2023-06-17T03:39:13.374Z,3.15
2023-06-17T03:42:00.987Z,3.40
2023-06-17T03:44:48.466Z,3.30
2023-06-17T03:47:36.053Z,3.88
2023-06-17T03:50:23.816Z,3.35
2023-06-17T03:53:11.648Z,3.50
2023-06-17T03:55:59.327Z,3.73
2023-06-17T03:58:46.901Z,3.72
2023-06-17T04:01:34.478Z,3.60
2023-06-17T04:04:22.040Z,3.70
2023-06-17T04:07:09.971Z,3.78
2023-06-17T04:10:06.501Z,3.72
2023-06-17T04:12:55.154Z,4.03
2023-06-17T04:15:43.724Z,3.60
2023-06-17T04:18:31.543Z,3.20
2023-06-17T04:21:19.174Z,3.77
2023-06-17T04:24:06.820Z,3.97
2023-06-17T04:26:55.329Z,4.40
2023-06-17T04:29:44.024Z,4.55
2023-06-17T04:32:31.582Z,4.53
2023-06-17T04:35:20.217Z,3.53
2023-06-17T04:38:08.662Z,3.88
2023-06-17T04:40:56.217Z,4.07
2023-06-17T04:43:46.630Z,5.13
2023-06-17T04:46:34.135Z,4.13
2023-06-17T04:49:22.355Z,4.00
2023-06-17T04:52:10.007Z,4.88
2023-06-17T04:54:57.658Z,4.20
2023-06-17T04:57:46.177Z,3.65
2023-06-17T05:00:33.786Z,4.18
2023-06-17T05:03:21.267Z,4.03
2023-06-17T05:06:08.871Z,4.30
2023-06-17T05:08:56.374Z,4.60
2023-06-17T05:11:43.985Z,4.63
2023-06-17T05:14:31.498Z,3.97
2023-06-17T05:17:19.015Z,4.03
2023-06-17T05:20:07.535Z,4.25
2023-06-17T05:22:55.036Z,4.20
2023-06-17T05:25:42.581Z,5.00
2023-06-17T05:28:30.174Z,3.95
2023-06-17T05:31:17.950Z,4.78
2023-06-17T05:34:05.689Z,4.07
2023-06-17T05:36:53.178Z,4.07
2023-06-17T05:39:40.855Z,3.85
2023-06-17T05:42:28.316Z,4.07
2023-06-17T05:45:15.972Z,4.50
2023-06-17T05:48:03.707Z,3.92
2023-06-17T05:50:51.347Z,4.60
2023-06-17T05:53:38.835Z,4.15
2023-06-17T05:56:27.359Z,4.78
2023-06-17T05:59:17.360Z,4.65
2023-06-17T06:02:06.668Z,5.05
2023-06-17T06:04:54.230Z,5.10
2023-06-17T06:07:44.869Z,5.00
2023-06-17T06:10:32.477Z,4.53
2023-06-17T06:13:20.067Z,5.60
2023-06-17T06:16:07.587Z,4.70
2023-06-17T06:18:55.115Z,5.80
2023-06-17T06:21:42.637Z,6.90
2023-06-17T06:24:30.314Z,5.75
2023-06-17T06:27:17.950Z,5.75
2023-06-17T06:30:06.501Z,4.97
2023-06-17T06:32:54.045Z,6.07
2023-06-17T06:35:43.889Z,6.18
2023-06-17T06:38:31.365Z,5.50
2023-06-17T06:41:18.922Z,5.68
2023-06-17T06:44:06.442Z,5.07
2023-06-17T06:46:57.297Z,5.40
2023-06-17T06:49:44.914Z,4.28
2023-06-17T06:52:32.714Z,4.25
2023-06-17T06:55:20.297Z,4.70
2023-06-17T06:58:07.877Z,5.65
2023-06-17T07:00:55.427Z,4.47
2023-06-17T07:03:43.209Z,4.78
2023-06-17T07:06:31.709Z,4.20
2023-06-17T07:09:19.254Z,4.40
2023-06-17T07:12:08.156Z,4.63
2023-06-17T07:14:56.586Z,3.60
2023-06-17T07:17:44.180Z,4.18
2023-06-17T07:20:31.703Z,4.22
2023-06-17T07:23:19.631Z,4.10
2023-06-17T07:26:08.006Z,4.45
2023-06-17T07:28:55.828Z,4.30
2023-06-17T07:31:43.932Z,4.28
2023-06-17T07:34:31.586Z,4.07
2023-06-17T07:37:19.077Z,5.28
2023-06-17T07:40:07.740Z,4.43
2023-06-17T07:42:55.301Z,4.57
2023-06-17T07:45:42.789Z,4.50
2023-06-17T07:48:32.986Z,5.07
2023-06-17T07:51:20.680Z,3.92
2023-06-17T07:54:08.250Z,3.97
2023-06-17T07:56:55.726Z,4.15
2023-06-17T07:59:44.316Z,4.60
2023-06-17T08:02:32.447Z,5.07
2023-06-17T08:05:20.092Z,5.00
2023-06-17T08:08:07.621Z,5.65
2023-06-17T08:10:55.103Z,5.43
2023-06-17T08:13:42.684Z,5.65
2023-06-17T08:16:30.265Z,6.00
2023-06-17T08:19:17.738Z,6.25
2023-06-17T08:22:05.979Z,7.68
2023-06-17T08:24:53.713Z,8.07
2023-06-17T08:27:43.884Z,10.15
2023-06-17T08:30:31.566Z,9.80
2023-06-17T08:33:19.275Z,9.60
2023-06-17T08:36:06.980Z,10.75
2023-06-17T08:38:54.478Z,11.10
2023-06-17T08:41:43.864Z,10.90
2023-06-17T08:44:37.224Z,10.40
2023-06-17T08:47:27.287Z,9.82
2023-06-17T08:50:15.309Z,10.88
2023-06-17T08:53:03.538Z,13.25
2023-06-17T08:55:51.101Z,12.43
2023-06-17T08:58:40.471Z,11.88
2023-06-17T09:01:29.295Z,11.68
2023-06-17T09:04:18.920Z,11.13
2023-06-17T09:07:09.781Z,10.15
2023-06-17T09:10:09.846Z,9.65
2023-06-17T09:13:01.165Z,9.52
2023-06-17T09:15:48.636Z,9.40
2023-06-17T09:18:36.958Z,9.50
2023-06-17T09:21:27.241Z,9.35
2023-06-17T09:24:14.984Z,8.32
2023-06-17T09:27:03.644Z,6.43
2023-06-17T09:30:14.694Z,6.22
2023-06-17T09:33:03.246Z,5.25
2023-06-17T09:36:09.927Z,5.25
2023-06-17T09:38:57.693Z,5.82
2023-06-17T09:41:46.382Z,4.82
2023-06-17T09:44:34.711Z,5.32
2023-06-17T09:47:36.842Z,5.03
2023-06-17T09:50:26.415Z,6.25
2023-06-17T09:53:15.379Z,5.38
2023-06-17T09:56:03.632Z,5.15
2023-06-17T09:58:54.603Z,5.43
2023-06-17T10:01:42.196Z,5.55
2023-06-17T10:04:29.735Z,5.22
2023-06-17T10:07:20.226Z,5.93
2023-06-17T10:10:11.740Z,5.70
2023-06-17T10:13:05.093Z,6.22
2023-06-17T10:15:54.570Z,4.85
2023-06-17T10:18:46.102Z,3.50
2023-06-17T10:21:39.489Z,3.28
2023-06-17T10:24:28.123Z,3.80
2023-06-17T10:27:15.913Z,4.10
2023-06-17T10:30:26.914Z,3.60
2023-06-17T10:33:14.544Z,3.53
2023-06-17T10:36:09.031Z,3.20
2023-06-17T10:39:08.209Z,3.10
2023-06-17T10:42:01.163Z,2.65
2023-06-17T10:44:51.725Z,3.25
2023-06-17T10:47:39.215Z,2.85
2023-06-17T10:50:27.331Z,2.53
2023-06-17T10:53:18.555Z,3.03
2023-06-17T10:56:08.218Z,3.05
2023-06-17T10:58:55.912Z,2.92
2023-06-17T11:01:43.455Z,3.30
2023-06-17T11:04:33.295Z,2.90
2023-06-17T11:07:27.717Z,2.85
2023-06-17T11:10:15.405Z,3.28
2023-06-17T11:13:03.021Z,3.03
2023-06-17T11:15:56.715Z,3.15
2023-06-17T11:18:46.114Z,2.30
2023-06-17T11:21:33.629Z,2.90
2023-06-17T11:24:21.363Z,3.03
2023-06-17T11:27:12.051Z,3.22
2023-06-17T11:30:00.241Z,3.13
2023-06-17T11:32:50.205Z,3.00
2023-06-17T11:35:38.867Z,3.30
2023-06-17T11:38:28.109Z,2.65
2023-06-17T11:41:16.572Z,3.47
2023-06-17T11:44:04.754Z,3.17
2023-06-17T11:46:57.663Z,2.92
2023-06-17T11:49:46.588Z,3.35
2023-06-17T11:52:37.585Z,3.20
2023-06-17T11:55:36.971Z,2.70
2023-06-17T11:58:26.939Z,3.10
2023-06-17T12:01:15.969Z,3.47
2023-06-17T12:04:04.005Z,3.22
2023-06-17T12:06:51.658Z,3.70
2023-06-17T12:09:55.949Z,3.35
2023-06-17T12:12:44.580Z,3.63
2023-06-17T12:15:36.702Z,3.50
2023-06-17T12:18:29.986Z,3.47
2023-06-17T12:21:20.373Z,3.30
2023-06-17T12:24:08.975Z,3.35
2023-06-17T12:26:56.601Z,3.45
2023-06-17T12:29:46.877Z,3.15
2023-06-17T12:32:35.504Z,3.35
2023-06-17T12:35:24.074Z,2.95
2023-06-17T12:38:11.741Z,2.88
2023-06-17T12:41:00.910Z,3.22
2023-06-17T12:43:49.634Z,2.85
2023-06-17T12:46:39.196Z,3.20
2023-06-17T12:49:26.867Z,3.00
2023-06-17T12:52:15.228Z,3.25
2023-06-17T12:55:06.199Z,3.20
2023-06-17T12:57:53.923Z,2.72
2023-06-17T13:00:41.453Z,2.80
2023-06-17T13:03:28.908Z,2.75
2023-06-17T13:06:16.747Z,2.80
2023-06-17T13:09:05.317Z,2.47
2023-06-17T13:11:53.281Z,2.33
2023-06-17T13:14:41.371Z,2.53
2023-06-17T13:17:28.928Z,2.95
2023-06-17T13:20:16.727Z,2.33
2023-06-17T13:23:05.669Z,2.55
2023-06-17T13:25:54.978Z,2.58
2023-06-17T13:28:42.452Z,2.30
2023-06-17T13:31:30.322Z,2.75
2023-06-17T13:34:19.222Z,3.10
2023-06-17T13:37:07.162Z,2.53
2023-06-17T13:39:55.430Z,2.80
2023-06-17T13:42:43.063Z,3.10
2023-06-17T13:45:30.590Z,2.30
2023-06-17T13:48:18.926Z,2.90
2023-06-17T13:51:06.436Z,2.80
2023-06-17T13:53:53.932Z,2.85
2023-06-17T13:56:41.635Z,2.63
2023-06-17T13:59:29.124Z,2.78
2023-06-17T14:02:16.825Z,3.17
2023-06-17T14:05:04.796Z,3.33
2023-06-17T14:07:52.296Z,3.70
2023-06-17T14:10:39.847Z,3.35
2023-06-17T14:13:27.360Z,3.25
2023-06-17T14:16:15.245Z,3.20
2023-06-17T14:19:02.837Z,3.03
2023-06-17T14:22:08.234Z,2.55
2023-06-17T14:24:55.833Z,2.83
2023-06-17T14:27:44.612Z,2.90
2023-06-17T14:30:32.143Z,2.75
2023-06-17T14:33:19.984Z,2.47
2023-06-17T14:36:07.647Z,2.42
2023-06-17T14:38:56.578Z,2.35
2023-06-17T14:41:44.057Z,2.20
2023-06-17T14:44:31.550Z,1.90
2023-06-17T14:47:21.615Z,1.65
2023-06-17T14:50:14.631Z,1.95
2023-06-17T14:53:02.121Z,1.67
2023-06-17T14:55:51.076Z,1.88
2023-06-17T14:58:38.577Z,1.55
2023-06-17T15:01:33.820Z,1.60
2023-06-17T15:04:21.619Z,1.98
2023-06-17T15:07:09.217Z,2.00
2023-06-17T15:09:56.782Z,1.88
2023-06-17T15:12:45.405Z,1.63
2023-06-17T15:15:32.958Z,2.53
2023-06-17T15:18:20.541Z,2.00
2023-06-17T15:21:08.051Z,2.42
2023-06-17T15:23:55.758Z,2.17
2023-06-17T15:26:44.397Z,2.05
2023-06-17T15:29:31.866Z,2.25
2023-06-17T15:32:21.322Z,2.05
2023-06-17T15:35:11.192Z,1.98
2023-06-17T15:37:58.683Z,2.30
2023-06-17T15:40:46.573Z,2.83
2023-06-17T15:43:34.117Z,2.40
2023-06-17T15:46:21.702Z,2.40
2023-06-17T15:49:10.102Z,2.97
2023-06-17T15:51:57.641Z,2.55
2023-06-17T15:54:45.155Z,2.38
2023-06-17T15:57:32.663Z,2.50
2023-06-17T16:00:20.452Z,3.40
2023-06-17T16:03:08.455Z,2.88
2023-06-17T16:05:56.923Z,2.33
2023-06-17T16:08:46.456Z,2.40
2023-06-17T16:11:34.002Z,2.63
2023-06-17T16:14:21.550Z,2.75
2023-06-17T16:17:10.967Z,2.40
2023-06-17T16:19:59.343Z,2.45
2023-06-17T16:22:46.989Z,2.38
2023-06-17T16:25:45.087Z,2.25
2023-06-17T16:28:42.195Z,2.70
2023-06-17T16:31:29.819Z,2.35
2023-06-17T16:34:17.786Z,2.38
2023-06-17T16:37:06.058Z,2.47
2023-06-17T16:39:53.688Z,2.67
2023-06-17T16:42:41.350Z,2.85
2023-06-17T16:45:29.116Z,2.22
2023-06-17T16:48:16.988Z,2.30
2023-06-17T16:51:07.203Z,2.63
2023-06-17T16:53:54.998Z,2.33
2023-06-17T16:56:42.556Z,2.40
2023-06-17T16:59:30.152Z,3.05
2023-06-17T17:02:17.722Z,2.88
2023-06-17T17:05:05.974Z,2.50
2023-06-17T17:07:54.288Z,2.50
2023-06-17T17:10:42.089Z,2.38
2023-06-17T17:13:43.661Z,2.63
2023-06-17T17:16:36.773Z,2.78
2023-06-17T17:19:24.290Z,2.38
2023-06-17T17:22:11.844Z,2.50
2023-06-17T17:24:59.313Z,2.88
2023-06-17T17:27:46.999Z,3.08
2023-06-17T17:30:34.500Z,2.53
2023-06-17T17:33:23.834Z,2.63
2023-06-17T17:36:13.869Z,2.35
2023-06-17T17:39:01.443Z,2.80
2023-06-17T17:41:48.896Z,2.45
2023-06-17T17:44:36.481Z,2.60
2023-06-17T17:47:24.029Z,2.58
2023-06-17T17:50:13.623Z,2.97
2023-06-17T17:53:01.517Z,2.72
2023-06-17T17:55:49.034Z,2.92
2023-06-17T17:58:36.983Z,2.70
2023-06-17T18:01:24.546Z,3.13
2023-06-17T18:04:12.195Z,2.78
2023-06-17T18:06:59.714Z,2.70
2023-06-17T18:09:47.862Z,3.03
2023-06-17T18:12:35.451Z,2.95
2023-06-17T18:15:24.432Z,3.05
2023-06-17T18:18:12.009Z,3.28
2023-06-17T18:20:59.627Z,2.78
2023-06-17T18:23:48.248Z,2.97
2023-06-17T18:26:37.651Z,3.20
2023-06-17T18:29:25.175Z,3.38
2023-06-17T18:32:12.794Z,3.38
2023-06-17T18:35:01.589Z,3.10
2023-06-17T18:37:49.232Z,3.00
2023-06-17T18:40:36.824Z,3.15
2023-06-17T18:43:24.281Z,2.83
2023-06-17T18:46:11.855Z,2.95
2023-06-17T18:48:59.289Z,2.60
2023-06-17T18:51:46.908Z,2.60
2023-06-17T18:54:34.459Z,2.67
2023-06-17T18:57:22.418Z,3.17
2023-06-17T19:00:11.439Z,2.80
2023-06-17T19:02:59.094Z,2.25
2023-06-17T19:05:46.691Z,2.63
2023-06-17T19:08:34.582Z,3.15
2023-06-17T19:11:22.126Z,2.28
2023-06-17T19:14:09.636Z,2.17
2023-06-17T19:16:57.122Z,3.10
2023-06-17T19:19:47.798Z,2.75
2023-06-17T19:22:38.213Z,2.17
2023-06-17T19:25:27.173Z,2.45
2023-06-17T19:28:14.716Z,2.65
2023-06-17T19:31:02.304Z,2.60
2023-06-17T19:33:49.838Z,2.42
2023-06-17T19:36:37.610Z,2.70
2023-06-17T19:39:25.084Z,3.38
2023-06-17T19:42:12.787Z,3.10
2023-06-17T19:45:00.280Z,2.58
2023-06-17T19:47:48.492Z,2.40
2023-06-17T19:50:36.898Z,2.67
2023-06-17T19:53:24.518Z,3.45
2023-06-17T19:56:12.467Z,2.72
2023-06-17T19:59:00.117Z,3.00
2023-06-17T20:01:47.995Z,3.05
2023-06-17T20:04:35.729Z,2.90
2023-06-17T20:07:23.357Z,2.40
2023-06-17T20:10:11.129Z,2.53
2023-06-17T20:12:59.138Z,2.65
2023-06-17T20:15:47.764Z,2.92
2023-06-17T20:18:35.503Z,2.55
2023-06-17T20:21:23.318Z,2.88
2023-06-17T20:24:11.037Z,2.33
2023-06-17T20:26:59.397Z,3.03
2023-06-17T20:29:47.893Z,2.55
2023-06-17T20:32:35.744Z,2.30
2023-06-17T20:35:23.245Z,3.05
2023-06-17T20:38:10.813Z,2.47
2023-06-17T20:40:58.420Z,2.40
2023-06-17T20:43:46.102Z,2.85
2023-06-17T20:46:33.858Z,2.28
2023-06-17T20:49:21.387Z,2.78
2023-06-17T20:52:09.261Z,3.00
2023-06-17T20:54:56.811Z,2.70
2023-06-17T20:57:45.011Z,2.40
2023-06-17T21:00:32.552Z,2.45
2023-06-17T21:03:20.150Z,2.50
2023-06-17T21:06:08.050Z,3.00
2023-06-17T21:08:55.673Z,2.47
2023-06-17T21:11:43.257Z,2.92
2023-06-17T21:14:32.935Z,2.45
2023-06-17T21:17:20.633Z,3.38
2023-06-17T21:20:10.161Z,3.00
2023-06-17T21:22:57.911Z,2.85
2023-06-17T21:25:45.529Z,3.58
2023-06-17T21:28:33.023Z,3.10
2023-06-17T21:31:20.735Z,3.00
2023-06-17T21:34:08.283Z,2.88
2023-06-17T21:36:57.208Z,3.40
2023-06-17T21:39:44.751Z,3.22
2023-06-17T21:42:32.231Z,3.83
2023-06-17T21:45:19.753Z,4.07
2023-06-17T21:48:07.450Z,3.42
2023-06-17T21:50:55.203Z,4.22
2023-06-17T21:53:42.897Z,3.63
2023-06-17T21:56:31.301Z,4.40
2023-06-17T21:59:18.792Z,4.30
2023-06-17T22:02:06.547Z,4.10
2023-06-17T22:04:54.058Z,3.78
2023-06-17T22:07:41.561Z,4.32
2023-06-17T22:10:29.157Z,5.30
2023-06-17T22:13:16.752Z,3.88
2023-06-17T22:16:05.074Z,4.00
2023-06-17T22:18:52.831Z,4.90
2023-06-17T22:21:40.876Z,5.00
2023-06-17T22:24:28.383Z,5.40
2023-06-17T22:27:17.056Z,4.38
2023-06-17T22:30:05.636Z,4.78
2023-06-17T22:32:54.511Z,4.40
2023-06-17T22:35:42.175Z,3.75
2023-06-17T22:38:29.755Z,3.80
2023-06-17T22:41:17.450Z,3.78
2023-06-17T22:44:05.146Z,3.00
2023-06-17T22:46:52.703Z,4.55
2023-06-17T22:49:40.381Z,3.28
2023-06-17T22:52:28.133Z,3.45
2023-06-17T22:55:16.082Z,3.85
2023-06-17T22:58:03.988Z,3.40
2023-06-17T23:00:52.841Z,3.42
2023-06-17T23:03:40.676Z,3.22
2023-06-17T23:06:28.309Z,3.40
2023-06-17T23:09:15.934Z,3.22
2023-06-17T23:12:03.719Z,3.22
2023-06-17T23:14:51.224Z,3.70
2023-06-17T23:17:39.356Z,3.30
2023-06-17T23:20:26.926Z,3.85
2023-06-17T23:23:17.136Z,3.83
2023-06-17T23:26:04.667Z,3.58
2023-06-17T23:28:53.267Z,3.90
2023-06-17T23:31:41.046Z,3.72
2023-06-17T23:34:28.561Z,3.03
2023-06-17T23:37:21.511Z,4.35
2023-06-17T23:40:09.964Z,3.75
2023-06-17T23:42:57.596Z,3.42
2023-06-17T23:45:46.308Z,4.33
2023-06-17T23:48:33.925Z,4.37
2023-06-17T23:51:21.986Z,4.75
2023-06-17T23:54:09.644Z,3.90
2023-06-17T23:56:57.247Z,4.43
2023-06-17T23:59:44.719Z,4.00
